sensor_id;sensor_type;location;lat;lon;timestamp;temperature;humidity
18361;SHT31;9308;48.550;9.108;2023-07-13T00:01:48;22.94;58.62
18361;SHT31;9308;48.550;9.108;2023-07-13T00:04:19;22.91;58.78
18361;SHT31;9308;48.550;9.108;2023-07-13T00:06:46;22.71;59.79
18361;SHT31;9308;48.550;9.108;2023-07-13T00:09:13;22.70;59.87
18361;SHT31;9308;48.550;9.108;2023-07-13T00:11:39;22.53;60.09
18361;SHT31;9308;48.550;9.108;2023-07-13T00:14:05;22.59;59.49
18361;SHT31;9308;48.550;9.108;2023-07-13T00:16:30;22.27;59.98
18361;SHT31;9308;48.550;9.108;2023-07-13T00:18:56;22.29;60.16
18361;SHT31;9308;48.550;9.108;2023-07-13T00:21:21;22.20;60.58
18361;SHT31;9308;48.550;9.108;2023-07-13T00:23:47;22.37;58.95
18361;SHT31;9308;48.550;9.108;2023-07-13T00:26:12;22.49;57.62
18361;SHT31;9308;48.550;9.108;2023-07-13T00:28:39;22.32;58.42
18361;SHT31;9308;48.550;9.108;2023-07-13T00:31:05;22.41;58.15
18361;SHT31;9308;48.550;9.108;2023-07-13T00:33:31;22.06;58.81
18361;SHT31;9308;48.550;9.108;2023-07-13T00:35:57;22.46;58.61
18361;SHT31;9308;48.550;9.108;2023-07-13T00:38:23;22.32;58.70
18361;SHT31;9308;48.550;9.108;2023-07-13T00:40:49;22.25;58.78
18361;SHT31;9308;48.550;9.108;2023-07-13T00:43:18;22.32;58.34
18361;SHT31;9308;48.550;9.108;2023-07-13T00:48:18;22.22;58.42
18361;SHT31;9308;48.550;9.108;2023-07-13T00:50:48;22.16;58.72
18361;SHT31;9308;48.550;9.108;2023-07-13T00:53:15;22.12;58.63
18361;SHT31;9308;48.550;9.108;2023-07-13T00:55:40;22.01;58.59
18361;SHT31;9308;48.550;9.108;2023-07-13T00:58:06;21.92;58.95
18361;SHT31;9308;48.550;9.108;2023-07-13T01:00:34;21.97;58.49
18361;SHT31;9308;48.550;9.108;2023-07-13T01:03:02;21.95;58.30
18361;SHT31;9308;48.550;9.108;2023-07-13T01:05:31;21.88;58.87
18361;SHT31;9308;48.550;9.108;2023-07-13T01:07:59;21.91;58.16
18361;SHT31;9308;48.550;9.108;2023-07-13T01:10:26;21.94;57.83
18361;SHT31;9308;48.550;9.108;2023-07-13T01:12:51;21.75;57.96
18361;SHT31;9308;48.550;9.108;2023-07-13T01:18:11;21.64;58.29
18361;SHT31;9308;48.550;9.108;2023-07-13T01:20:38;21.44;58.71
18361;SHT31;9308;48.550;9.108;2023-07-13T01:23:09;21.62;58.50
18361;SHT31;9308;48.550;9.108;2023-07-13T01:25:36;21.65;58.07
18361;SHT31;9308;48.550;9.108;2023-07-13T01:28:04;21.61;58.25
18361;SHT31;9308;48.550;9.108;2023-07-13T01:30:29;21.57;58.41
18361;SHT31;9308;48.550;9.108;2023-07-13T01:32:55;21.67;58.50
18361;SHT31;9308;48.550;9.108;2023-07-13T01:35:20;21.65;57.76
18361;SHT31;9308;48.550;9.108;2023-07-13T01:37:46;21.50;58.36
18361;SHT31;9308;48.550;9.108;2023-07-13T01:40:12;21.17;59.51
18361;SHT31;9308;48.550;9.108;2023-07-13T01:42:38;21.29;58.77
18361;SHT31;9308;48.550;9.108;2023-07-13T01:45:04;21.12;59.78
18361;SHT31;9308;48.550;9.108;2023-07-13T01:47:30;21.20;59.69
18361;SHT31;9308;48.550;9.108;2023-07-13T01:49:57;21.15;59.42
18361;SHT31;9308;48.550;9.108;2023-07-13T01:52:22;21.26;58.99
18361;SHT31;9308;48.550;9.108;2023-07-13T01:54:48;21.09;59.48
18361;SHT31;9308;48.550;9.108;2023-07-13T01:57:13;21.00;60.42
18361;SHT31;9308;48.550;9.108;2023-07-13T01:59:39;20.81;61.59
18361;SHT31;9308;48.550;9.108;2023-07-13T02:02:04;21.02;60.59
18361;SHT31;9308;48.550;9.108;2023-07-13T02:04:30;20.77;62.55
18361;SHT31;9308;48.550;9.108;2023-07-13T02:06:55;20.68;62.31
18361;SHT31;9308;48.550;9.108;2023-07-13T02:09:21;20.71;61.81
18361;SHT31;9308;48.550;9.108;2023-07-13T02:11:46;20.41;62.06
18361;SHT31;9308;48.550;9.108;2023-07-13T02:14:12;20.12;62.30
18361;SHT31;9308;48.550;9.108;2023-07-13T02:16:37;20.58;61.15
18361;SHT31;9308;48.550;9.108;2023-07-13T02:19:03;20.57;60.76
18361;SHT31;9308;48.550;9.108;2023-07-13T02:21:28;20.45;61.17
18361;SHT31;9308;48.550;9.108;2023-07-13T02:23:54;20.50;61.54
18361;SHT31;9308;48.550;9.108;2023-07-13T02:26:20;20.47;62.22
18361;SHT31;9308;48.550;9.108;2023-07-13T02:28:45;20.52;61.38
18361;SHT31;9308;48.550;9.108;2023-07-13T02:31:13;20.14;63.16
18361;SHT31;9308;48.550;9.108;2023-07-13T02:33:39;20.14;63.35
18361;SHT31;9308;48.550;9.108;2023-07-13T02:36:05;19.95;63.89
18361;SHT31;9308;48.550;9.108;2023-07-13T02:38:31;20.06;63.12
18361;SHT31;9308;48.550;9.108;2023-07-13T02:40:59;19.99;63.37
18361;SHT31;9308;48.550;9.108;2023-07-13T02:43:25;19.86;63.98
18361;SHT31;9308;48.550;9.108;2023-07-13T02:45:51;19.82;63.64
18361;SHT31;9308;48.550;9.108;2023-07-13T02:48:16;19.74;63.87
18361;SHT31;9308;48.550;9.108;2023-07-13T02:50:44;19.76;63.71
18361;SHT31;9308;48.550;9.108;2023-07-13T02:53:09;19.78;63.96
18361;SHT31;9308;48.550;9.108;2023-07-13T02:55:35;19.69;64.20
18361;SHT31;9308;48.550;9.108;2023-07-13T02:58:00;19.72;63.74
18361;SHT31;9308;48.550;9.108;2023-07-13T03:00:26;19.58;63.75
18361;SHT31;9308;48.550;9.108;2023-07-13T03:02:53;19.66;63.60
18361;SHT31;9308;48.550;9.108;2023-07-13T03:05:18;19.13;64.63
18361;SHT31;9308;48.550;9.108;2023-07-13T03:07:44;19.47;64.12
18361;SHT31;9308;48.550;9.108;2023-07-13T03:10:09;19.59;63.13
18361;SHT31;9308;48.550;9.108;2023-07-13T03:12:35;19.64;63.18
18361;SHT31;9308;48.550;9.108;2023-07-13T03:15:00;19.44;64.06
18361;SHT31;9308;48.550;9.108;2023-07-13T03:17:26;19.48;63.77
18361;SHT31;9308;48.550;9.108;2023-07-13T03:19:52;19.62;64.03
18361;SHT31;9308;48.550;9.108;2023-07-13T03:22:18;19.58;64.22
18361;SHT31;9308;48.550;9.108;2023-07-13T03:24:44;19.40;64.58
18361;SHT31;9308;48.550;9.108;2023-07-13T03:27:09;19.17;65.26
18361;SHT31;9308;48.550;9.108;2023-07-13T03:29:35;18.85;66.17
18361;SHT31;9308;48.550;9.108;2023-07-13T03:32:00;19.13;65.48
18361;SHT31;9308;48.550;9.108;2023-07-13T03:34:26;19.16;65.54
18361;SHT31;9308;48.550;9.108;2023-07-13T03:36:54;19.27;64.83
18361;SHT31;9308;48.550;9.108;2023-07-13T03:39:20;19.34;64.64
18361;SHT31;9308;48.550;9.108;2023-07-13T03:41:45;19.40;64.56
18361;SHT31;9308;48.550;9.108;2023-07-13T03:44:11;19.38;64.72
18361;SHT31;9308;48.550;9.108;2023-07-13T03:46:36;19.27;64.75
18361;SHT31;9308;48.550;9.108;2023-07-13T03:49:04;19.17;65.36
18361;SHT31;9308;48.550;9.108;2023-07-13T03:51:30;19.44;64.43
18361;SHT31;9308;48.550;9.108;2023-07-13T03:53:56;19.40;64.85
18361;SHT31;9308;48.550;9.108;2023-07-13T03:56:21;19.59;64.17
18361;SHT31;9308;48.550;9.108;2023-07-13T03:58:48;19.19;65.30
18361;SHT31;9308;48.550;9.108;2023-07-13T04:01:16;19.38;64.88
18361;SHT31;9308;48.550;9.108;2023-07-13T04:03:41;19.44;64.69
18361;SHT31;9308;48.550;9.108;2023-07-13T04:06:13;19.54;64.18
18361;SHT31;9308;48.550;9.108;2023-07-13T04:08:40;19.55;64.19
18361;SHT31;9308;48.550;9.108;2023-07-13T04:11:06;19.30;65.19
18361;SHT31;9308;48.550;9.108;2023-07-13T04:13:32;19.37;64.93
18361;SHT31;9308;48.550;9.108;2023-07-13T04:15:57;19.47;64.17
18361;SHT31;9308;48.550;9.108;2023-07-13T04:18:23;19.57;63.70
18361;SHT31;9308;48.550;9.108;2023-07-13T04:20:49;19.28;64.59
18361;SHT31;9308;48.550;9.108;2023-07-13T04:23:18;19.33;64.86
18361;SHT31;9308;48.550;9.108;2023-07-13T04:25:48;19.27;65.10
18361;SHT31;9308;48.550;9.108;2023-07-13T04:28:19;19.43;64.69
18361;SHT31;9308;48.550;9.108;2023-07-13T04:30:45;19.43;64.46
18361;SHT31;9308;48.550;9.108;2023-07-13T04:33:10;19.44;64.50
18361;SHT31;9308;48.550;9.108;2023-07-13T04:35:36;19.57;63.24
18361;SHT31;9308;48.550;9.108;2023-07-13T04:38:02;19.48;63.20
18361;SHT31;9308;48.550;9.108;2023-07-13T04:40:28;19.59;62.91
18361;SHT31;9308;48.550;9.108;2023-07-13T04:42:54;19.51;63.16
18361;SHT31;9308;48.550;9.108;2023-07-13T04:45:21;19.50;62.94
18361;SHT31;9308;48.550;9.108;2023-07-13T04:47:47;19.57;62.50
18361;SHT31;9308;48.550;9.108;2023-07-13T04:50:13;19.50;62.77
18361;SHT31;9308;48.550;9.108;2023-07-13T04:52:46;19.62;62.21
18361;SHT31;9308;48.550;9.108;2023-07-13T04:55:12;19.44;62.66
18361;SHT31;9308;48.550;9.108;2023-07-13T04:57:37;19.55;62.57
18361;SHT31;9308;48.550;9.108;2023-07-13T05:00:04;19.55;62.55
18361;SHT31;9308;48.550;9.108;2023-07-13T05:02:31;19.54;63.30
18361;SHT31;9308;48.550;9.108;2023-07-13T05:04:57;19.82;61.97
18361;SHT31;9308;48.550;9.108;2023-07-13T05:07:23;19.86;60.97
18361;SHT31;9308;48.550;9.108;2023-07-13T05:09:48;19.99;61.00
18361;SHT31;9308;48.550;9.108;2023-07-13T05:12:14;19.86;60.87
18361;SHT31;9308;48.550;9.108;2023-07-13T05:14:39;19.93;61.61
18361;SHT31;9308;48.550;9.108;2023-07-13T05:17:05;20.12;61.77
18361;SHT31;9308;48.550;9.108;2023-07-13T05:19:30;20.29;60.17
18361;SHT31;9308;48.550;9.108;2023-07-13T05:21:56;20.16;60.44
18361;SHT31;9308;48.550;9.108;2023-07-13T05:24:21;20.31;60.44
18361;SHT31;9308;48.550;9.108;2023-07-13T05:26:47;20.37;60.91
18361;SHT31;9308;48.550;9.108;2023-07-13T05:29:12;20.41;61.03
18361;SHT31;9308;48.550;9.108;2023-07-13T05:31:37;20.01;61.15
18361;SHT31;9308;48.550;9.108;2023-07-13T05:34:03;20.33;60.90
18361;SHT31;9308;48.550;9.108;2023-07-13T05:36:28;20.55;60.83
18361;SHT31;9308;48.550;9.108;2023-07-13T05:38:54;20.94;59.32
18361;SHT31;9308;48.550;9.108;2023-07-13T05:41:20;20.69;59.61
18361;SHT31;9308;48.550;9.108;2023-07-13T05:43:45;20.48;58.92
18361;SHT31;9308;48.550;9.108;2023-07-13T05:46:11;20.69;59.09
18361;SHT31;9308;48.550;9.108;2023-07-13T05:48:36;20.79;59.78
18361;SHT31;9308;48.550;9.108;2023-07-13T05:51:01;20.96;60.61
18361;SHT31;9308;48.550;9.108;2023-07-13T05:53:27;21.00;61.33
18361;SHT31;9308;48.550;9.108;2023-07-13T05:55:54;20.91;61.49
18361;SHT31;9308;48.550;9.108;2023-07-13T05:58:20;21.24;60.00
18361;SHT31;9308;48.550;9.108;2023-07-13T06:00:46;21.17;60.26
18361;SHT31;9308;48.550;9.108;2023-07-13T06:03:11;20.91;60.44
18361;SHT31;9308;48.550;9.108;2023-07-13T06:05:38;21.02;60.07
18361;SHT31;9308;48.550;9.108;2023-07-13T06:08:03;21.50;58.96
18361;SHT31;9308;48.550;9.108;2023-07-13T06:10:29;21.29;58.85
18361;SHT31;9308;48.550;9.108;2023-07-13T06:12:57;21.24;59.31
18361;SHT31;9308;48.550;9.108;2023-07-13T06:15:22;21.47;60.16
18361;SHT31;9308;48.550;9.108;2023-07-13T06:17:48;21.07;59.96
18361;SHT31;9308;48.550;9.108;2023-07-13T06:20:13;21.67;59.51
18361;SHT31;9308;48.550;9.108;2023-07-13T06:22:38;21.89;59.35
18361;SHT31;9308;48.550;9.108;2023-07-13T06:25:04;21.77;58.78
18361;SHT31;9308;48.550;9.108;2023-07-13T06:27:30;21.72;59.37
18361;SHT31;9308;48.550;9.108;2023-07-13T06:29:55;21.67;58.81
18361;SHT31;9308;48.550;9.108;2023-07-13T06:32:20;21.83;59.74
18361;SHT31;9308;48.550;9.108;2023-07-13T06:34:46;21.82;58.24
18361;SHT31;9308;48.550;9.108;2023-07-13T06:37:11;21.95;58.59
18361;SHT31;9308;48.550;9.108;2023-07-13T06:39:37;21.68;57.45
18361;SHT31;9308;48.550;9.108;2023-07-13T06:42:02;21.81;56.00
18361;SHT31;9308;48.550;9.108;2023-07-13T06:44:28;21.94;55.61
18361;SHT31;9308;48.550;9.108;2023-07-13T06:46:53;22.19;54.97
18361;SHT31;9308;48.550;9.108;2023-07-13T06:49:19;22.08;53.09
18361;SHT31;9308;48.550;9.108;2023-07-13T06:51:44;22.22;52.07
18361;SHT31;9308;48.550;9.108;2023-07-13T06:54:09;22.63;51.90
18361;SHT31;9308;48.550;9.108;2023-07-13T06:56:35;22.73;50.94
18361;SHT31;9308;48.550;9.108;2023-07-13T06:59:00;22.81;50.19
18361;SHT31;9308;48.550;9.108;2023-07-13T07:01:26;23.20;50.84
18361;SHT31;9308;48.550;9.108;2023-07-13T07:03:51;22.78;49.84
18361;SHT31;9308;48.550;9.108;2023-07-13T07:06:19;22.85;47.93
18361;SHT31;9308;48.550;9.108;2023-07-13T07:08:45;22.90;48.17
18361;SHT31;9308;48.550;9.108;2023-07-13T07:11:13;23.06;48.03
18361;SHT31;9308;48.550;9.108;2023-07-13T07:13:39;23.20;48.36
18361;SHT31;9308;48.550;9.108;2023-07-13T07:16:04;22.95;48.10
18361;SHT31;9308;48.550;9.108;2023-07-13T07:18:29;22.90;49.62
18361;SHT31;9308;48.550;9.108;2023-07-13T07:20:55;23.09;48.33
18361;SHT31;9308;48.550;9.108;2023-07-13T07:23:20;23.26;45.17
18361;SHT31;9308;48.550;9.108;2023-07-13T07:25:46;22.77;45.11
18361;SHT31;9308;48.550;9.108;2023-07-13T07:28:14;22.52;45.57
18361;SHT31;9308;48.550;9.108;2023-07-13T07:30:43;23.15;46.21
18361;SHT31;9308;48.550;9.108;2023-07-13T07:33:09;23.30;46.46
18361;SHT31;9308;48.550;9.108;2023-07-13T07:35:34;23.25;46.23
18361;SHT31;9308;48.550;9.108;2023-07-13T07:38:00;23.84;47.09
18361;SHT31;9308;48.550;9.108;2023-07-13T07:40:25;24.00;47.75
18361;SHT31;9308;48.550;9.108;2023-07-13T07:42:51;23.43;47.30
18361;SHT31;9308;48.550;9.108;2023-07-13T07:45:17;24.04;47.12
18361;SHT31;9308;48.550;9.108;2023-07-13T07:47:42;24.22;46.19
18361;SHT31;9308;48.550;9.108;2023-07-13T07:50:08;23.94;47.01
18361;SHT31;9308;48.550;9.108;2023-07-13T07:52:34;24.09;48.46
18361;SHT31;9308;48.550;9.108;2023-07-13T07:55:00;24.26;47.80
18361;SHT31;9308;48.550;9.108;2023-07-13T07:57:25;23.94;46.33
18361;SHT31;9308;48.550;9.108;2023-07-13T07:59:51;24.19;45.64
18361;SHT31;9308;48.550;9.108;2023-07-13T08:02:16;24.61;46.40
18361;SHT31;9308;48.550;9.108;2023-07-13T08:04:42;25.05;47.22
18361;SHT31;9308;48.550;9.108;2023-07-13T08:07:08;25.16;46.27
18361;SHT31;9308;48.550;9.108;2023-07-13T08:09:33;25.21;45.92
18361;SHT31;9308;48.550;9.108;2023-07-13T08:11:58;25.42;45.70
18361;SHT31;9308;48.550;9.108;2023-07-13T08:14:24;25.58;44.77
18361;SHT31;9308;48.550;9.108;2023-07-13T08:16:49;25.32;45.70
18361;SHT31;9308;48.550;9.108;2023-07-13T08:19:15;25.84;45.75
18361;SHT31;9308;48.550;9.108;2023-07-13T08:21:40;26.18;44.60
18361;SHT31;9308;48.550;9.108;2023-07-13T08:24:08;26.41;43.65
18361;SHT31;9308;48.550;9.108;2023-07-13T08:26:34;26.21;44.84
18361;SHT31;9308;48.550;9.108;2023-07-13T08:29:00;26.07;43.76
18361;SHT31;9308;48.550;9.108;2023-07-13T08:31:25;26.48;43.76
18361;SHT31;9308;48.550;9.108;2023-07-13T08:33:51;26.39;44.34
18361;SHT31;9308;48.550;9.108;2023-07-13T08:36:16;26.67;43.33
18361;SHT31;9308;48.550;9.108;2023-07-13T08:38:42;26.53;43.32
18361;SHT31;9308;48.550;9.108;2023-07-13T08:41:13;26.82;43.37
18361;SHT31;9308;48.550;9.108;2023-07-13T08:43:39;26.99;40.67
18361;SHT31;9308;48.550;9.108;2023-07-13T08:46:34;27.01;42.68
18361;SHT31;9308;48.550;9.108;2023-07-13T08:49:07;26.96;41.30
18361;SHT31;9308;48.550;9.108;2023-07-13T08:51:44;26.84;41.57
18361;SHT31;9308;48.550;9.108;2023-07-13T08:54:19;26.90;41.95
18361;SHT31;9308;48.550;9.108;2023-07-13T08:56:47;27.10;40.40
18361;SHT31;9308;48.550;9.108;2023-07-13T08:59:16;26.96;38.49
18361;SHT31;9308;48.550;9.108;2023-07-13T09:04:45;26.38;39.91
18361;SHT31;9308;48.550;9.108;2023-07-13T09:07:35;26.70;40.66
18361;SHT31;9308;48.550;9.108;2023-07-13T09:15:34;27.75;37.65
18361;SHT31;9308;48.550;9.108;2023-07-13T09:18:15;27.94;36.59
18361;SHT31;9308;48.550;9.108;2023-07-13T09:20:48;27.63;36.45
18361;SHT31;9308;48.550;9.108;2023-07-13T09:23:19;27.80;35.10
18361;SHT31;9308;48.550;9.108;2023-07-13T09:25:48;27.45;36.20
18361;SHT31;9308;48.550;9.108;2023-07-13T09:28:26;27.34;36.15
18361;SHT31;9308;48.550;9.108;2023-07-13T09:31:04;26.79;36.27
18361;SHT31;9308;48.550;9.108;2023-07-13T09:33:31;26.94;38.15
18361;SHT31;9308;48.550;9.108;2023-07-13T09:35:57;27.32;37.18
18361;SHT31;9308;48.550;9.108;2023-07-13T09:38:28;27.58;36.03
18361;SHT31;9308;48.550;9.108;2023-07-13T09:41:19;28.32;35.92
18361;SHT31;9308;48.550;9.108;2023-07-13T09:44:01;28.72;33.61
18361;SHT31;9308;48.550;9.108;2023-07-13T09:46:26;28.51;35.60
18361;SHT31;9308;48.550;9.108;2023-07-13T09:48:52;27.42;36.23
18361;SHT31;9308;48.550;9.108;2023-07-13T09:51:18;28.27;36.97
18361;SHT31;9308;48.550;9.108;2023-07-13T09:53:43;28.20;37.24
18361;SHT31;9308;48.550;9.108;2023-07-13T09:56:26;27.51;36.58
18361;SHT31;9308;48.550;9.108;2023-07-13T09:58:52;27.03;36.65
18361;SHT31;9308;48.550;9.108;2023-07-13T10:01:32;27.06;37.35
18361;SHT31;9308;48.550;9.108;2023-07-13T10:03:58;27.08;39.77
18361;SHT31;9308;48.550;9.108;2023-07-13T10:06:23;26.76;37.88
18361;SHT31;9308;48.550;9.108;2023-07-13T10:08:50;26.57;37.76
18361;SHT31;9308;48.550;9.108;2023-07-13T10:11:21;26.78;36.00
18361;SHT31;9308;48.550;9.108;2023-07-13T10:13:56;27.06;35.90
18361;SHT31;9308;48.550;9.108;2023-07-13T10:16:24;27.11;34.73
18361;SHT31;9308;48.550;9.108;2023-07-13T10:18:55;27.96;34.34
18361;SHT31;9308;48.550;9.108;2023-07-13T10:21:22;28.65;34.35
18361;SHT31;9308;48.550;9.108;2023-07-13T10:24:02;28.31;34.06
18361;SHT31;9308;48.550;9.108;2023-07-13T10:26:33;29.04;35.64
18361;SHT31;9308;48.550;9.108;2023-07-13T10:29:04;29.07;32.90
18361;SHT31;9308;48.550;9.108;2023-07-13T10:31:32;29.27;32.68
18361;SHT31;9308;48.550;9.108;2023-07-13T10:34:00;29.30;32.35
18361;SHT31;9308;48.550;9.108;2023-07-13T10:36:40;29.08;33.14
18361;SHT31;9308;48.550;9.108;2023-07-13T10:39:07;29.13;32.23
18361;SHT31;9308;48.550;9.108;2023-07-13T10:41:39;29.79;34.48
18361;SHT31;9308;48.550;9.108;2023-07-13T10:44:18;29.50;31.80
18361;SHT31;9308;48.550;9.108;2023-07-13T10:46:45;29.69;34.51
18361;SHT31;9308;48.550;9.108;2023-07-13T10:49:11;29.54;33.12
18361;SHT31;9308;48.550;9.108;2023-07-13T10:51:37;29.44;34.40
18361;SHT31;9308;48.550;9.108;2023-07-13T10:54:18;29.43;33.14
18361;SHT31;9308;48.550;9.108;2023-07-13T10:56:49;29.41;33.75
18361;SHT31;9308;48.550;9.108;2023-07-13T10:59:20;28.97;33.90
18361;SHT31;9308;48.550;9.108;2023-07-13T11:04:40;28.68;36.41
18361;SHT31;9308;48.550;9.108;2023-07-13T11:07:19;28.09;34.67
18361;SHT31;9308;48.550;9.108;2023-07-13T11:09:49;28.37;34.34
18361;SHT31;9308;48.550;9.108;2023-07-13T11:17:24;28.44;32.13
18361;SHT31;9308;48.550;9.108;2023-07-13T11:19:51;29.13;33.65
18361;SHT31;9308;48.550;9.108;2023-07-13T11:22:24;28.71;33.14
18361;SHT31;9308;48.550;9.108;2023-07-13T11:24:56;29.10;34.60
18361;SHT31;9308;48.550;9.108;2023-07-13T11:27:43;28.34;34.06
18361;SHT31;9308;48.550;9.108;2023-07-13T11:38:20;29.78;33.25
18361;SHT31;9308;48.550;9.108;2023-07-13T11:40:47;29.69;33.74
18361;SHT31;9308;48.550;9.108;2023-07-13T11:43:14;30.31;33.28
18361;SHT31;9308;48.550;9.108;2023-07-13T11:45:41;29.98;31.23
18361;SHT31;9308;48.550;9.108;2023-07-13T11:48:21;30.44;33.46
18361;SHT31;9308;48.550;9.108;2023-07-13T11:50:56;28.96;31.51
18361;SHT31;9308;48.550;9.108;2023-07-13T11:53:26;29.07;34.59
18361;SHT31;9308;48.550;9.108;2023-07-13T11:55:52;28.38;33.68
18361;SHT31;9308;48.550;9.108;2023-07-13T11:58:22;28.67;33.25
18361;SHT31;9308;48.550;9.108;2023-07-13T12:00:49;28.58;34.02
18361;SHT31;9308;48.550;9.108;2023-07-13T12:03:20;28.61;35.33
18361;SHT31;9308;48.550;9.108;2023-07-13T12:06:03;28.37;33.27
18361;SHT31;9308;48.550;9.108;2023-07-13T12:08:31;28.51;34.09
18361;SHT31;9308;48.550;9.108;2023-07-13T12:10:58;28.38;34.79
18361;SHT31;9308;48.550;9.108;2023-07-13T12:13:27;29.38;32.64
18361;SHT31;9308;48.550;9.108;2023-07-13T12:15:53;29.30;32.20
18361;SHT31;9308;48.550;9.108;2023-07-13T12:18:22;29.54;30.64
18361;SHT31;9308;48.550;9.108;2023-07-13T12:20:49;29.62;30.63
18361;SHT31;9308;48.550;9.108;2023-07-13T12:23:23;29.85;29.82
18361;SHT31;9308;48.550;9.108;2023-07-13T12:25:51;30.21;29.29
18361;SHT31;9308;48.550;9.108;2023-07-13T12:28:38;29.69;29.50
18361;SHT31;9308;48.550;9.108;2023-07-13T12:34:10;29.37;29.85
18361;SHT31;9308;48.550;9.108;2023-07-13T12:36:40;28.97;30.77
18361;SHT31;9308;48.550;9.108;2023-07-13T12:39:16;28.53;30.41
18361;SHT31;9308;48.550;9.108;2023-07-13T12:41:42;29.59;33.66
18361;SHT31;9308;48.550;9.108;2023-07-13T12:44:39;30.23;32.32
18361;SHT31;9308;48.550;9.108;2023-07-13T12:47:11;30.24;29.38
18361;SHT31;9308;48.550;9.108;2023-07-13T12:49:45;30.43;28.96
18361;SHT31;9308;48.550;9.108;2023-07-13T12:52:19;30.76;29.79
18361;SHT31;9308;48.550;9.108;2023-07-13T12:55:02;30.98;29.08
18361;SHT31;9308;48.550;9.108;2023-07-13T12:57:28;30.86;29.12
18361;SHT31;9308;48.550;9.108;2023-07-13T12:59:54;30.68;28.46
18361;SHT31;9308;48.550;9.108;2023-07-13T13:02:29;30.71;29.80
18361;SHT31;9308;48.550;9.108;2023-07-13T13:04:56;31.08;30.20
18361;SHT31;9308;48.550;9.108;2023-07-13T13:07:23;30.81;28.83
18361;SHT31;9308;48.550;9.108;2023-07-13T13:09:48;31.48;28.94
18361;SHT31;9308;48.550;9.108;2023-07-13T13:12:14;31.36;28.96
18361;SHT31;9308;48.550;9.108;2023-07-13T13:14:40;30.41;29.92
18361;SHT31;9308;48.550;9.108;2023-07-13T13:17:18;30.78;29.89
18361;SHT31;9308;48.550;9.108;2023-07-13T13:19:45;30.47;29.17
18361;SHT31;9308;48.550;9.108;2023-07-13T13:22:11;31.22;28.73
18361;SHT31;9308;48.550;9.108;2023-07-13T13:24:36;31.56;28.96
18361;SHT31;9308;48.550;9.108;2023-07-13T13:27:02;31.64;27.99
18361;SHT31;9308;48.550;9.108;2023-07-13T13:29:28;31.74;28.06
18361;SHT31;9308;48.550;9.108;2023-07-13T13:31:55;30.74;27.62
18361;SHT31;9308;48.550;9.108;2023-07-13T13:34:22;30.02;29.17
18361;SHT31;9308;48.550;9.108;2023-07-13T13:36:52;30.06;29.59
18361;SHT31;9308;48.550;9.108;2023-07-13T13:39:23;30.85;28.53
18361;SHT31;9308;48.550;9.108;2023-07-13T13:41:51;31.39;28.90
18361;SHT31;9308;48.550;9.108;2023-07-13T13:44:17;30.82;28.47
18361;SHT31;9308;48.550;9.108;2023-07-13T13:46:45;30.53;28.06
18361;SHT31;9308;48.550;9.108;2023-07-13T13:49:14;30.27;29.58
18361;SHT31;9308;48.550;9.108;2023-07-13T13:51:41;30.63;30.51
18361;SHT31;9308;48.550;9.108;2023-07-13T13:54:11;30.85;28.27
18361;SHT31;9308;48.550;9.108;2023-07-13T13:56:37;31.10;28.94
18361;SHT31;9308;48.550;9.108;2023-07-13T13:59:02;30.14;28.08
18361;SHT31;9308;48.550;9.108;2023-07-13T14:01:30;30.86;31.08
18361;SHT31;9308;48.550;9.108;2023-07-13T14:03:56;30.84;28.99
18361;SHT31;9308;48.550;9.108;2023-07-13T14:06:22;31.15;28.39
18361;SHT31;9308;48.550;9.108;2023-07-13T14:08:48;31.31;28.36
18361;SHT31;9308;48.550;9.108;2023-07-13T14:11:15;31.00;28.71
18361;SHT31;9308;48.550;9.108;2023-07-13T14:13:45;30.89;28.49
18361;SHT31;9308;48.550;9.108;2023-07-13T14:16:16;31.08;27.08
18361;SHT31;9308;48.550;9.108;2023-07-13T14:18:44;31.64;28.40
18361;SHT31;9308;48.550;9.108;2023-07-13T14:21:15;31.44;26.82
18361;SHT31;9308;48.550;9.108;2023-07-13T14:23:41;31.82;26.83
18361;SHT31;9308;48.550;9.108;2023-07-13T14:26:21;31.96;27.43
18361;SHT31;9308;48.550;9.108;2023-07-13T14:28:48;31.98;27.79
18361;SHT31;9308;48.550;9.108;2023-07-13T14:31:15;32.35;27.76
18361;SHT31;9308;48.550;9.108;2023-07-13T14:33:41;32.13;28.16
18361;SHT31;9308;48.550;9.108;2023-07-13T14:36:39;32.26;28.20
18361;SHT31;9308;48.550;9.108;2023-07-13T14:39:15;31.99;26.46
18361;SHT31;9308;48.550;9.108;2023-07-13T14:41:42;32.18;26.57
18361;SHT31;9308;48.550;9.108;2023-07-13T14:44:16;32.13;27.40
18361;SHT31;9308;48.550;9.108;2023-07-13T14:46:43;32.25;27.98
18361;SHT31;9308;48.550;9.108;2023-07-13T14:51:56;32.22;26.28
18361;SHT31;9308;48.550;9.108;2023-07-13T14:54:23;31.71;26.45
18361;SHT31;9308;48.550;9.108;2023-07-13T14:56:48;31.82;27.56
18361;SHT31;9308;48.550;9.108;2023-07-13T14:59:14;32.28;28.44
18361;SHT31;9308;48.550;9.108;2023-07-13T15:01:40;31.96;28.35
18361;SHT31;9308;48.550;9.108;2023-07-13T15:04:06;31.37;27.86
18361;SHT31;9308;48.550;9.108;2023-07-13T15:06:55;30.68;29.16
18361;SHT31;9308;48.550;9.108;2023-07-13T15:09:20;31.57;29.20
18361;SHT31;9308;48.550;9.108;2023-07-13T15:11:46;31.98;28.77
18361;SHT31;9308;48.550;9.108;2023-07-13T15:14:11;32.29;26.75
18361;SHT31;9308;48.550;9.108;2023-07-13T15:16:37;32.35;27.09
18361;SHT31;9308;48.550;9.108;2023-07-13T15:19:02;32.37;26.56
18361;SHT31;9308;48.550;9.108;2023-07-13T15:21:28;32.29;27.98
18361;SHT31;9308;48.550;9.108;2023-07-13T15:24:00;32.28;26.68
18361;SHT31;9308;48.550;9.108;2023-07-13T15:26:26;31.89;29.42
18361;SHT31;9308;48.550;9.108;2023-07-13T15:28:51;31.61;28.51
18361;SHT31;9308;48.550;9.108;2023-07-13T15:31:20;31.19;27.83
18361;SHT31;9308;48.550;9.108;2023-07-13T15:33:46;31.63;30.01
18361;SHT31;9308;48.550;9.108;2023-07-13T15:36:14;31.37;29.54
18361;SHT31;9308;48.550;9.108;2023-07-13T15:38:40;31.00;29.70
18361;SHT31;9308;48.550;9.108;2023-07-13T15:41:16;30.78;29.95
18361;SHT31;9308;48.550;9.108;2023-07-13T15:43:41;30.13;31.43
18361;SHT31;9308;48.550;9.108;2023-07-13T15:46:07;30.47;31.03
18361;SHT31;9308;48.550;9.108;2023-07-13T15:48:32;31.03;31.22
18361;SHT31;9308;48.550;9.108;2023-07-13T15:51:02;30.91;31.38
18361;SHT31;9308;48.550;9.108;2023-07-13T15:53:33;31.13;30.74
18361;SHT31;9308;48.550;9.108;2023-07-13T15:55:59;31.05;30.53
18361;SHT31;9308;48.550;9.108;2023-07-13T15:58:26;30.75;31.68
18361;SHT31;9308;48.550;9.108;2023-07-13T16:00:53;30.46;31.93
18361;SHT31;9308;48.550;9.108;2023-07-13T16:03:22;30.47;31.30
18361;SHT31;9308;48.550;9.108;2023-07-13T16:05:49;31.10;32.83
18361;SHT31;9308;48.550;9.108;2023-07-13T16:08:24;31.43;30.52
18361;SHT31;9308;48.550;9.108;2023-07-13T16:10:51;31.10;30.64
18361;SHT31;9308;48.550;9.108;2023-07-13T16:13:18;31.26;30.69
18361;SHT31;9308;48.550;9.108;2023-07-13T16:15:46;31.80;30.82
18361;SHT31;9308;48.550;9.108;2023-07-13T16:18:12;32.11;29.34
18361;SHT31;9308;48.550;9.108;2023-07-13T16:20:39;31.91;29.41
18361;SHT31;9308;48.550;9.108;2023-07-13T16:23:05;31.99;29.96
18361;SHT31;9308;48.550;9.108;2023-07-13T16:25:31;31.82;29.43